Time;durP1;ratioP1;P1;durP2;ratioP2;P2;SDS_P1;SDS_P2;PMS_P1;PMS_P2;Temp;Humidity;BMP_temperature;BMP_pressure;BME280_temperature;BME280_humidity;BME280_pressure;Samples;Min_cycle;Max_cycle;Signal;HPM_P1;HPM_P2
2023/07/16 00:01:53;;;;;;;4.28;2.72;;;;;;;17.79;66.44;100743.90;1838067;78;21342;-53
2023/07/16 00:05:00;;;;;;;4.92;3.08;;;;;;;17.77;66.42;100747.41;1838506;78;21358;-52
2023/07/16 00:08:00;;;;;;;3.55;2.60;;;;;;;17.73;66.44;100751.66;1838875;78;21177;-53
2023/07/16 00:11:06;;;;;;;4.78;2.85;;;;;;;17.71;66.52;100743.55;1838251;77;21350;-53
2023/07/16 00:14:12;;;;;;;5.83;3.20;;;;;;;17.68;66.56;100744.51;1838701;78;21354;-53
2023/07/16 00:17:19;;;;;;;7.95;3.15;;;;;;;17.65;66.60;100747.70;1838303;78;21334;-53
2023/07/16 00:20:25;;;;;;;5.12;2.60;;;;;;;17.62;66.71;100748.14;1837571;78;21385;-54
2023/07/16 00:23:31;;;;;;;6.70;3.47;;;;;;;17.59;66.75;100749.95;1838780;78;21404;-54
2023/07/16 00:26:37;;;;;;;3.58;2.85;;;;;;;17.56;66.79;100751.77;1821653;78;21800;-53
2023/07/16 00:29:43;;;;;;;6.78;2.52;;;;;;;17.53;66.85;100754.44;1838800;77;21346;-54
2023/07/16 00:32:50;;;;;;;6.78;2.80;;;;;;;17.51;66.94;100755.17;1838843;78;21836;-54
2023/07/16 00:35:57;;;;;;;6.58;3.12;;;;;;;17.51;67.03;100751.02;1838335;77;21386;-54
2023/07/16 00:39:03;;;;;;;8.33;3.33;;;;;;;17.49;67.10;100746.77;1838716;78;21414;-54
2023/07/16 00:42:09;;;;;;;8.38;3.02;;;;;;;17.46;67.10;100755.47;1838796;78;21330;-54
2023/07/16 00:45:18;;;;;;;4.83;2.92;;;;;;;17.42;67.10;100754.17;1838769;78;21784;-54
2023/07/16 00:48:24;;;;;;;5.83;3.10;;;;;;;17.40;67.17;100741.06;1838645;78;21362;-54
2023/07/16 00:51:32;;;;;;;3.80;2.60;;;;;;;17.36;67.19;100751.70;1838825;77;21307;-54
2023/07/16 00:54:38;;;;;;;7.42;2.70;;;;;;;17.32;67.11;100748.18;1839092;78;21339;-53
2023/07/16 00:57:47;;;;;;;6.92;2.60;;;;;;;17.26;67.13;100747.12;1820651;77;21326;-54
2023/07/16 01:00:53;;;;;;;4.15;2.52;;;;;;;17.21;67.12;100757.97;1838929;78;21398;-53
2023/07/16 01:03:59;;;;;;;5.65;2.90;;;;;;;17.16;67.20;100750.81;1838233;78;21398;-53
2023/07/16 01:07:07;;;;;;;4.28;2.75;;;;;;;17.11;67.21;100753.35;1838792;78;21322;-54
2023/07/16 01:10:14;;;;;;;4.92;2.95;;;;;;;17.05;67.08;100756.09;1838637;78;21211;-54
2023/07/16 01:13:19;;;;;;;4.95;3.17;;;;;;;16.96;67.04;100754.59;1838870;78;21354;-55
2023/07/16 01:16:30;;;;;;;4.25;3.05;;;;;;;16.90;67.16;100756.81;1838726;78;21315;-54
2023/07/16 01:19:36;;;;;;;4.87;3.17;;;;;;;16.86;67.31;100760.52;1838854;77;21716;-55
2023/07/16 01:22:50;;;;;;;9.30;3.02;;;;;;;16.78;67.30;100757.93;1838633;78;21666;-54
2023/07/16 01:26:16;;;;;;;5.05;2.87;;;;;;;16.74;67.50;100759.94;1837983;78;21355;-53
2023/07/16 01:29:39;;;;;;;4.35;2.85;;;;;;;16.73;67.71;100769.30;1838947;78;21373;-53
2023/07/16 01:32:45;;;;;;;3.92;3.05;;;;;;;16.68;67.73;100766.30;1832287;77;21319;-53
2023/07/16 01:35:54;;;;;;;5.55;3.40;;;;;;;16.64;67.77;100774.66;1838732;77;21969;-53
2023/07/16 01:39:00;;;;;;;5.83;2.92;;;;;;;16.60;67.78;100773.38;1838672;78;21863;-54
2023/07/16 01:42:06;;;;;;;6.15;2.85;;;;;;;16.56;67.81;100781.74;1838544;78;21342;-55
2023/07/16 01:45:16;;;;;;;4.60;3.30;;;;;;;16.50;67.82;100777.91;1838325;78;21354;-55
2023/07/16 01:48:41;;;;;;;4.70;3.25;;;;;;;16.46;67.89;100788.19;1838905;78;21869;-55
2023/07/16 01:51:47;;;;;;;5.33;3.00;;;;;;;16.42;67.91;100781.66;1838826;78;21386;-55
2023/07/16 01:54:54;;;;;;;4.90;3.27;;;;;;;16.35;67.95;100779.89;1838776;78;21327;-53
2023/07/16 01:58:02;;;;;;;4.80;2.80;;;;;;;16.31;68.03;100775.84;1839249;77;21334;-54
2023/07/16 02:01:09;;;;;;;6.05;2.92;;;;;;;16.29;68.23;100781.58;1837904;78;21421;-54
2023/07/16 02:04:16;;;;;;;5.50;3.00;;;;;;;16.29;68.41;100780.20;1838276;77;21374;-54
2023/07/16 02:07:24;;;;;;;4.12;2.92;;;;;;;16.31;68.61;100779.47;1838779;77;21319;-54
2023/07/16 02:10:31;;;;;;;3.65;2.55;;;;;;;16.35;68.71;100788.19;1839655;77;21366;-54
2023/07/16 02:13:37;;;;;;;6.42;3.17;;;;;;;16.34;68.78;100787.35;1839032;77;21315;-54
2023/07/16 02:16:45;;;;;;;4.95;2.80;;;;;;;16.36;68.82;100790.73;1838567;78;21327;-54
2023/07/16 02:19:51;;;;;;;4.78;3.27;;;;;;;16.38;68.91;100787.25;1838244;77;21863;-54
2023/07/16 02:22:57;;;;;;;5.17;3.10;;;;;;;16.42;69.03;100793.23;1835606;78;21378;-54
2023/07/16 02:26:02;;;;;;;6.28;3.37;;;;;;;16.48;69.16;100798.49;1835617;78;21880;-53
2023/07/16 02:29:08;;;;;;;4.92;2.95;;;;;;;16.54;69.30;100801.85;1838284;78;21373;-54
2023/07/16 02:32:15;;;;;;;5.53;3.08;;;;;;;16.60;69.35;100796.36;1838751;78;21851;-54
2023/07/16 02:35:23;;;;;;;6.30;3.15;;;;;;;16.64;69.35;100792.11;1838708;78;21402;-54
2023/07/16 02:38:30;;;;;;;5.65;3.02;;;;;;;16.68;69.34;100798.09;1838520;78;21331;-54
2023/07/16 02:41:37;;;;;;;7.47;3.08;;;;;;;16.70;69.32;100794.05;1838736;78;21315;-54
2023/07/16 02:44:44;;;;;;;8.60;3.58;;;;;;;16.74;69.37;100800.03;1838640;78;21338;-54
2023/07/16 02:47:51;;;;;;;4.53;2.75;;;;;;;16.79;69.43;100800.27;1838109;78;21934;-53
2023/07/16 02:50:57;;;;;;;5.92;2.95;;;;;;;16.84;69.43;100803.28;1838338;78;21730;-53
2023/07/16 02:54:03;;;;;;;4.60;2.95;;;;;;;16.88;69.47;100804.03;1837848;78;21385;-54
2023/07/16 02:57:10;;;;;;;5.65;3.20;;;;;;;16.94;69.51;100799.58;1837929;78;21345;-53
2023/07/16 03:00:17;;;;;;;4.67;2.98;;;;;;;17.00;69.53;100802.92;1838435;78;21404;-53
2023/07/16 03:03:23;;;;;;;3.87;2.90;;;;;;;17.06;69.58;100802.09;1838725;78;21386;-53
2023/07/16 03:06:29;;;;;;;5.97;3.12;;;;;;;17.14;69.65;100804.67;1839060;78;21363;-54
2023/07/16 03:09:36;;;;;;;6.05;3.00;;;;;;;17.21;69.66;100801.38;1838628;78;21369;-54
2023/07/16 03:12:42;;;;;;;5.62;3.40;;;;;;;17.27;69.72;100806.93;1839044;78;21399;-54
2023/07/16 03:15:49;;;;;;;6.40;3.37;;;;;;;17.33;69.70;100811.62;1838708;78;21338;-54
2023/07/16 03:18:55;;;;;;;6.87;3.52;;;;;;;17.40;69.70;100811.64;1838669;77;21363;-53
2023/07/16 03:22:02;;;;;;;5.15;3.33;;;;;;;17.44;69.70;100814.33;1838690;78;22079;-53
2023/07/16 03:25:09;;;;;;;4.00;2.87;;;;;;;17.50;69.69;100819.91;1833437;78;21331;-54
2023/07/16 03:28:15;;;;;;;6.92;3.80;;;;;;;17.54;69.73;100821.19;1816022;78;22398;-53
2023/07/16 03:31:21;;;;;;;4.15;3.35;;;;;;;17.59;69.79;100817.26;1833666;78;21402;-54
2023/07/16 03:34:28;;;;;;;4.37;3.50;;;;;;;17.67;69.84;100825.89;1832932;78;21335;-53
2023/07/16 03:37:35;;;;;;;5.78;3.47;;;;;;;17.72;69.83;100823.34;1833395;78;21331;-55
2023/07/16 03:40:42;;;;;;;7.00;3.80;;;;;;;17.77;69.82;100822.19;1833183;78;21853;-53
2023/07/16 03:43:49;;;;;;;4.53;3.37;;;;;;;17.84;69.92;100825.80;1833297;78;21367;-55
2023/07/16 03:46:57;;;;;;;5.03;3.42;;;;;;;17.90;69.92;100829.13;1833420;78;21836;-55
2023/07/16 03:50:03;;;;;;;5.75;3.40;;;;;;;17.96;69.93;100824.11;1833511;78;21323;-54
2023/07/16 03:53:10;;;;;;;6.65;3.33;;;;;;;18.02;69.89;100823.25;1833105;78;21322;-53
2023/07/16 03:56:17;;;;;;;4.92;3.20;;;;;;;18.04;69.87;100826.67;1833848;78;21331;-54
2023/07/16 03:59:23;;;;;;;5.40;3.22;;;;;;;18.08;69.92;100826.55;1833360;78;21367;-53
2023/07/16 04:02:31;;;;;;;6.78;3.40;;;;;;;18.14;69.96;100824.86;1833292;78;21339;-53
2023/07/16 04:05:39;;;;;;;6.00;3.20;;;;;;;18.20;70.02;100831.79;1833515;78;21327;-53
2023/07/16 04:08:46;;;;;;;5.00;3.17;;;;;;;18.30;70.10;100829.41;1832147;78;21347;-54
2023/07/16 04:11:54;;;;;;;4.03;2.80;;;;;;;18.39;70.12;100829.56;1832840;78;21331;-53
2023/07/16 04:15:04;;;;;;;7.60;3.50;;;;;;;18.45;70.07;100828.69;1832911;78;21347;-54
2023/07/16 04:18:10;;;;;;;5.85;3.40;;;;;;;18.54;70.10;100835.70;1832426;78;21319;-54
2023/07/16 04:21:15;;;;;;;7.33;3.00;;;;;;;18.62;70.04;100841.55;1832739;78;21375;-54
2023/07/16 04:24:21;;;;;;;4.90;3.02;;;;;;;18.68;70.05;100833.21;1830633;78;21358;-54
2023/07/16 04:27:28;;;;;;;4.83;3.50;;;;;;;18.78;70.03;100842.47;1825094;78;21193;-55
2023/07/16 04:30:37;;;;;;;5.33;3.37;;;;;;;18.84;70.03;100836.04;1802181;78;21689;-53
2023/07/16 04:33:43;;;;;;;5.67;3.08;;;;;;;18.91;70.02;100843.30;1801644;78;21338;-53
2023/07/16 04:36:51;;;;;;;4.92;3.12;;;;;;;18.99;70.06;100841.67;1825265;78;21727;-54
2023/07/16 04:39:57;;;;;;;8.40;4.10;;;;;;;19.07;70.11;100841.42;1825688;78;21868;-54
2023/07/16 04:43:03;;;;;;;8.83;3.35;;;;;;;19.18;70.10;100857.91;1825368;78;21231;-54
2023/07/16 04:46:11;;;;;;;5.05;3.22;;;;;;;19.25;70.12;100854.03;1825706;78;21362;-53
2023/07/16 04:49:18;;;;;;;5.78;3.27;;;;;;;19.34;70.16;100851.34;1825435;78;21374;-53
2023/07/16 04:52:25;;;;;;;5.12;2.60;;;;;;;19.45;70.19;100853.11;1825537;78;21382;-54
2023/07/16 04:55:32;;;;;;;4.72;2.80;;;;;;;19.54;70.16;100854.55;1773194;79;21353;-55
2023/07/16 04:58:38;;;;;;;5.85;3.27;;;;;;;19.63;70.10;100857.40;1761922;81;21368;-54
2023/07/16 05:01:44;;;;;;;6.25;3.02;;;;;;;19.69;70.07;100855.11;1746130;81;21403;-54
2023/07/16 05:04:50;;;;;;;5.35;2.83;;;;;;;19.76;69.96;100862.84;1761934;81;21937;-53
2023/07/16 05:07:55;;;;;;;9.05;3.08;;;;;;;19.80;69.92;100862.20;1761234;81;21388;-53
2023/07/16 05:11:03;;;;;;;4.75;2.83;;;;;;;19.87;69.92;100867.16;1761661;81;21357;-54
2023/07/16 05:14:07;;;;;;;4.75;2.90;;;;;;;19.97;69.93;100868.05;1759418;81;21348;-54
2023/07/16 05:17:12;;;;;;;6.08;3.00;;;;;;;20.07;69.94;100879.00;1762174;81;21377;-55
2023/07/16 05:20:19;;;;;;;5.90;3.10;;;;;;;20.16;69.91;100875.42;1758638;81;21375;-53
2023/07/16 05:23:27;;;;;;;4.45;3.40;;;;;;;20.24;69.87;100878.78;1762244;81;21372;-53
2023/07/16 05:26:33;;;;;;;5.35;3.02;;;;;;;20.33;69.85;100869.60;1749478;81;21855;-55
2023/07/16 05:29:38;;;;;;;5.28;3.10;;;;;;;20.42;69.87;100873.82;1751217;81;21355;-53
2023/07/16 05:32:45;;;;;;;4.83;2.62;;;;;;;20.52;69.85;100865.79;1746432;81;21378;-53
2023/07/16 05:35:55;;;;;;;6.53;2.83;;;;;;;20.62;69.83;100873.08;1744534;81;21413;-54
2023/07/16 05:39:02;;;;;;;3.98;2.55;;;;;;;20.72;69.83;100877.03;1750381;80;21442;-54
2023/07/16 05:42:08;;;;;;;4.47;2.90;;;;;;;20.83;69.79;100872.66;1732543;82;21328;-55
2023/07/16 05:45:16;;;;;;;2.92;2.58;;;;;;;20.94;69.79;100881.63;1737195;81;21371;-54
2023/07/16 05:48:23;;;;;;;6.72;2.77;;;;;;;21.05;69.76;100877.25;1734864;82;21232;-54
2023/07/16 05:51:29;;;;;;;4.58;2.80;;;;;;;21.14;69.64;100880.89;1737063;82;21343;-56
2023/07/16 05:54:36;;;;;;;6.17;2.62;;;;;;;21.23;69.46;100882.27;1735491;82;21402;-55
2023/07/16 05:57:43;;;;;;;6.70;2.92;;;;;;;21.29;69.31;100882.75;1734677;82;21399;-54
2023/07/16 06:00:49;;;;;;;4.55;2.98;;;;;;;21.39;69.26;100879.41;1741947;81;21268;-54
2023/07/16 06:03:57;;;;;;;4.25;3.10;;;;;;;21.49;69.27;100882.47;1743202;81;21322;-53
2023/07/16 06:07:05;;;;;;;5.55;2.80;;;;;;;21.60;69.28;100881.67;1745165;81;21909;-55
2023/07/16 06:10:12;;;;;;;3.75;2.85;;;;;;;21.70;69.19;100887.55;1746727;81;21713;-54
2023/07/16 06:13:19;;;;;;;7.12;3.25;;;;;;;21.79;69.11;100888.41;1736523;82;21375;-55
2023/07/16 06:16:26;;;;;;;7.95;2.85;;;;;;;21.89;69.05;100886.44;1733601;82;21387;-55
2023/07/16 06:19:32;;;;;;;5.62;3.05;;;;;;;21.96;68.94;100892.22;1746574;81;21867;-55
2023/07/16 06:22:39;;;;;;;4.35;2.50;;;;;;;22.03;68.65;100881.83;1746215;81;21374;-55
2023/07/16 06:25:51;;;;;;;10.05;2.67;;;;;;;22.13;68.57;100883.50;1746572;81;21476;-55
2023/07/16 06:28:54;;;;;;;3.08;2.55;;;;;;;22.23;68.56;100883.75;1736848;81;21343;-54
2023/07/16 06:32:05;;;;;;;4.12;2.60;;;;;;;22.34;68.50;100893.24;1825378;78;21386;-56
2023/07/16 06:35:12;;;;;;;4.67;2.70;;;;;;;22.42;68.38;100884.49;1825508;78;21322;-54
2023/07/16 06:38:18;;;;;;;3.35;2.20;;;;;;;22.49;68.27;100892.22;1825607;78;21911;-56
2023/07/16 06:41:26;;;;;;;4.50;2.15;;;;;;;22.56;68.04;100893.53;1824990;78;21378;-54
2023/07/16 06:44:32;;;;;;;5.72;2.00;;;;;;;22.60;67.75;100886.36;1825049;78;21260;-55
2023/07/16 06:47:39;;;;;;;5.40;2.00;;;;;;;22.67;67.57;100899.67;1825558;78;21323;-55
2023/07/16 06:50:45;;;;;;;2.95;1.82;;;;;;;22.72;67.45;100884.44;1825475;78;21347;-54
2023/07/16 06:53:53;;;;;;;5.62;2.12;;;;;;;22.79;67.35;100890.73;1825496;78;22132;-54
2023/07/16 06:56:58;;;;;;;4.28;2.10;;;;;;;22.85;67.21;100891.19;1803039;78;21401;-55
2023/07/16 07:00:04;;;;;;;3.08;1.92;;;;;;;22.90;67.08;100896.33;1825157;78;21859;-55
2023/07/16 07:03:11;;;;;;;5.10;1.70;;;;;;;22.95;66.86;100898.37;1825080;78;21339;-56
2023/07/16 07:06:18;;;;;;;3.42;1.67;;;;;;;23.02;66.73;100904.17;1825175;78;21220;-54
2023/07/16 07:09:25;;;;;;;9.28;2.35;;;;;;;23.09;66.51;100909.06;1825189;78;21445;-55
2023/07/16 07:12:37;;;;;;;3.87;1.95;;;;;;;23.14;66.32;100892.42;1825762;78;21867;-54
2023/07/16 07:15:41;;;;;;;3.08;2.02;;;;;;;23.20;66.15;100899.81;1825658;78;21327;-55
2023/07/16 07:18:49;;;;;;;3.40;2.15;;;;;;;23.26;66.00;100891.05;1825715;78;21172;-55
2023/07/16 07:21:55;;;;;;;3.42;1.95;;;;;;;23.33;65.76;100901.52;1825683;78;21327;-56
2023/07/16 07:25:04;;;;;;;3.17;2.02;;;;;;;23.40;65.62;100896.66;1825730;78;21200;-54
2023/07/16 07:28:12;;;;;;;3.95;2.10;;;;;;;23.46;65.43;100903.50;1826320;75;21339;-55
2023/07/16 07:31:18;;;;;;;4.72;2.10;;;;;;;23.51;65.29;100893.83;1801917;78;21347;-55
2023/07/16 07:34:26;;;;;;;4.25;2.10;;;;;;;23.56;65.05;100902.30;1825271;78;21264;-57
2023/07/16 07:37:34;;;;;;;4.58;2.00;;;;;;;23.61;64.83;100895.95;1824496;78;21332;-54
2023/07/16 07:40:41;;;;;;;6.10;2.12;;;;;;;23.64;64.59;100894.09;1793374;80;21863;-54
2023/07/16 07:43:49;;;;;;;3.33;1.95;;;;;;;23.68;64.42;100893.88;1792882;80;21403;-54
2023/07/16 07:46:55;;;;;;;5.28;2.27;;;;;;;23.73;64.22;100893.98;1793018;80;21343;-53
2023/07/16 07:50:01;;;;;;;3.80;1.80;;;;;;;23.80;64.13;100891.87;1793209;80;21446;-55
2023/07/16 07:53:07;;;;;;;5.28;1.60;;;;;;;23.88;63.90;100897.64;1771888;80;21394;-55
2023/07/16 07:56:13;;;;;;;3.55;1.90;;;;;;;23.93;63.53;100892.97;1793241;80;22079;-54
2023/07/16 07:59:19;;;;;;;3.12;1.70;;;;;;;23.96;63.28;100889.67;1793253;80;21339;-56
2023/07/16 08:02:25;;;;;;;4.35;1.65;;;;;;;24.02;63.12;100887.86;1806474;78;21311;-55
2023/07/16 08:05:33;;;;;;;2.87;1.35;;;;;;;24.09;62.94;100881.55;1824653;78;21723;-55
2023/07/16 08:08:41;;;;;;;4.22;1.87;;;;;;;24.14;62.69;100873.25;1824768;78;21546;-55
2023/07/16 08:11:46;;;;;;;3.15;1.40;;;;;;;24.20;62.43;100871.69;1825162;78;21264;-54
2023/07/16 08:14:54;;;;;;;2.35;1.50;;;;;;;24.27;62.28;100877.98;1824835;78;21851;-55
2023/07/16 08:18:03;;;;;;;6.00;1.60;;;;;;;24.35;62.00;100883.70;1825430;78;21237;-54
2023/07/16 08:21:09;;;;;;;2.52;1.47;;;;;;;24.40;61.59;100869.80;1825503;78;21347;-55
2023/07/16 08:24:16;;;;;;;2.15;1.37;;;;;;;24.46;61.40;100875.23;1825457;78;21347;-55
2023/07/16 08:27:22;;;;;;;5.65;1.70;;;;;;;24.60;61.21;100873.78;1825541;78;21308;-55
2023/07/16 08:30:28;;;;;;;3.22;1.40;;;;;;;24.75;60.93;100863.41;1826534;77;21343;-55
2023/07/16 08:33:35;;;;;;;5.58;1.32;;;;;;;24.87;60.48;100858.00;1809515;78;21299;-56
2023/07/16 08:36:44;;;;;;;4.10;1.37;;;;;;;24.97;60.10;100857.30;1826869;78;21879;-56
2023/07/16 08:39:51;;;;;;;2.05;1.30;;;;;;;25.08;59.81;100858.55;1827003;78;21831;-55
2023/07/16 08:42:58;;;;;;;4.65;1.37;;;;;;;25.11;59.30;100853.55;1827346;78;21374;-55
2023/07/16 08:46:05;;;;;;;4.25;1.90;;;;;;;25.15;59.07;100851.94;1826530;78;21431;-54
2023/07/16 08:49:13;;;;;;;4.20;1.55;;;;;;;25.25;58.92;100854.86;1825934;78;21350;-53
2023/07/16 08:52:18;;;;;;;2.58;1.67;;;;;;;25.33;58.64;100843.19;1827429;78;21343;-54
2023/07/16 08:55:25;;;;;;;4.47;1.30;;;;;;;25.45;58.26;100852.36;1825509;78;21382;-55
2023/07/16 08:58:32;;;;;;;5.62;1.67;;;;;;;25.46;57.74;100845.64;1827776;78;21343;-53
2023/07/16 09:01:39;;;;;;;3.90;1.67;;;;;;;25.50;57.45;100846.25;1827657;78;21958;-54
2023/07/16 09:04:47;;;;;;;2.42;1.30;;;;;;;25.60;57.20;100859.00;1827995;78;21852;-54
2023/07/16 09:07:55;;;;;;;3.55;1.62;;;;;;;25.69;56.96;100853.78;1828036;78;21335;-54
2023/07/16 09:11:03;;;;;;;4.80;1.70;;;;;;;25.77;56.56;100849.07;1827189;78;21347;-55
2023/07/16 09:14:11;;;;;;;4.17;1.30;;;;;;;25.87;56.23;100844.98;1827119;78;21772;-55
2023/07/16 09:17:17;;;;;;;3.87;1.35;;;;;;;25.78;55.65;100850.78;1827137;78;21367;-55
2023/07/16 09:20:24;;;;;;;2.47;1.22;;;;;;;25.62;55.24;100844.16;1826702;78;21901;-55
2023/07/16 09:23:33;;;;;;;5.10;1.42;;;;;;;25.60;54.96;100842.71;1820256;78;21471;-55
2023/07/16 09:26:41;;;;;;;5.35;2.05;;;;;;;25.67;54.86;100846.17;1806777;78;21883;-54
2023/07/16 09:29:49;;;;;;;2.92;1.60;;;;;;;25.80;54.65;100848.57;1794532;78;21342;-54
2023/07/16 09:32:56;;;;;;;3.30;1.62;;;;;;;25.88;54.41;100849.47;1806399;79;21383;-54
2023/07/16 09:36:02;;;;;;;3.72;1.32;;;;;;;25.94;54.15;100840.84;1805479;79;21348;-54
2023/07/16 09:39:08;;;;;;;3.83;1.32;;;;;;;26.01;53.78;100842.06;1805193;79;21378;-54
2023/07/16 09:42:13;;;;;;;4.33;1.65;;;;;;;26.07;53.53;100841.85;1804648;79;21834;-55
2023/07/16 09:45:26;;;;;;;4.10;1.50;;;;;;;26.13;53.26;100840.78;1805049;79;21352;-57
2023/07/16 09:48:32;;;;;;;;;;;;;;;26.22;53.03;100847.63;1808163;79;21336;-55
2023/07/16 09:51:39;;;;;;;3.08;1.40;;;;;;;26.29;52.75;100838.98;1805669;79;20320;-55
2023/07/16 09:54:46;;;;;;;5.53;1.30;;;;;;;26.25;52.35;100837.80;1805720;79;21359;-55
2023/07/16 09:57:52;;;;;;;2.58;1.35;;;;;;;26.19;52.06;100838.88;1805850;79;21352;-53
2023/07/16 10:00:59;;;;;;;6.33;1.40;;;;;;;26.12;51.76;100837.70;1806182;79;21356;-53
2023/07/16 10:04:06;;;;;;;6.70;1.60;;;;;;;26.19;51.61;100831.86;1805692;79;21339;-54
2023/07/16 10:07:14;;;;;;;6.17;1.47;;;;;;;26.30;51.40;100825.22;1789407;79;21852;-54
2023/07/16 10:10:22;;;;;;;2.20;1.10;;;;;;;26.44;51.23;100820.84;1805964;79;22154;-55
2023/07/16 10:13:28;;;;;;;3.62;1.15;;;;;;;26.50;50.84;100822.56;1805992;79;21395;-56
2023/07/16 10:16:37;;;;;;;3.65;1.30;;;;;;;26.54;50.57;100828.49;1815052;78;21922;-54
2023/07/16 10:20:12;;;;;;;2.30;1.40;;;;;;;26.60;50.31;100823.19;1822023;78;21350;-54
2023/07/16 10:23:22;;;;;;;3.35;1.55;;;;;;;26.68;50.08;100823.58;1838995;77;21310;-54
2023/07/16 10:26:35;;;;;;;5.60;1.47;;;;;;;26.83;49.93;100823.66;1839177;77;21384;-55
2023/07/16 10:29:41;;;;;;;;;;;;;;;26.96;49.71;100825.99;1841812;77;21443;-54
2023/07/16 10:32:46;;;;;;;3.83;1.62;;;;;;;27.06;49.46;100823.25;1831495;76;20587;-54
2023/07/16 10:35:54;;;;;;;4.90;1.50;;;;;;;27.16;49.23;100821.88;1827974;78;21350;-54
2023/07/16 10:39:00;;;;;;;2.25;1.45;;;;;;;27.20;48.84;100825.84;1827079;77;21354;-54
2023/07/16 10:42:06;;;;;;;3.92;1.67;;;;;;;27.26;48.57;100823.37;1826912;77;21357;-54
2023/07/16 10:45:13;;;;;;;2.30;1.10;;;;;;;27.32;48.38;100813.82;1817077;78;21362;-54
2023/07/16 10:48:18;;;;;;;2.80;1.22;;;;;;;27.51;48.32;100821.23;1816581;78;21354;-55
2023/07/16 10:51:23;;;;;;;1.70;1.25;;;;;;;27.59;47.86;100821.52;1767948;80;21324;-54
2023/07/16 10:54:28;;;;;;;3.77;1.30;;;;;;;27.60;47.50;100820.41;1740066;81;21359;-55
2023/07/16 10:57:37;;;;;;;2.02;1.30;;;;;;;27.60;47.24;100817.59;1742920;81;21205;-54
2023/07/16 11:00:50;;;;;;;3.83;1.40;;;;;;;27.67;47.05;100813.94;1740412;81;21366;-56
2023/07/16 11:03:58;;;;;;;2.92;1.20;;;;;;;27.69;46.82;100818.73;1733002;81;21375;-54
2023/07/16 11:07:04;;;;;;;3.98;1.40;;;;;;;27.72;46.62;100824.36;1750626;81;21209;-55
2023/07/16 11:10:10;;;;;;;6.17;1.57;;;;;;;27.78;46.33;100821.87;1751331;82;21280;-55
2023/07/16 11:13:17;;;;;;;3.05;1.77;;;;;;;27.75;46.09;100820.98;1748833;80;21315;-55
2023/07/16 11:16:24;;;;;;;5.92;1.82;;;;;;;27.82;45.98;100815.39;1733878;81;21367;-54
2023/07/16 11:19:31;;;;;;;2.55;1.20;;;;;;;27.87;45.71;100818.78;1761557;81;21228;-55
2023/07/16 11:22:38;;;;;;;3.83;1.40;;;;;;;27.94;45.51;100815.73;1784049;80;21232;-55
2023/07/16 11:25:44;;;;;;;4.20;1.10;;;;;;;27.92;45.26;100829.23;1760852;81;21188;-54
2023/07/16 11:28:50;;;;;;;5.75;1.30;;;;;;;27.95;45.04;100821.62;1817866;78;21212;-57
2023/07/16 11:32:00;;;;;;;3.02;1.22;;;;;;;28.05;44.96;100832.33;1806255;78;21224;-56
2023/07/16 11:35:08;;;;;;;4.78;1.32;;;;;;;28.13;44.66;100823.91;1804868;79;21436;-55
2023/07/16 11:38:13;;;;;;;2.45;1.30;;;;;;;28.23;44.49;100816.86;1805137;79;21417;-54
2023/07/16 11:41:19;;;;;;;3.37;1.12;;;;;;;28.42;44.33;100815.16;1805545;79;21354;-55
2023/07/16 11:44:27;;;;;;;1.67;1.05;;;;;;;28.53;44.10;100820.55;1805153;79;21358;-54
2023/07/16 11:47:32;;;;;;;3.10;1.20;;;;;;;28.62;43.87;100818.02;1787834;79;21231;-55
2023/07/16 11:50:40;;;;;;;3.55;1.55;;;;;;;28.53;43.42;100823.37;1818844;78;21330;-54
2023/07/16 11:53:34;;;;;;;3.20;1.55;;;;;;;28.37;43.22;100831.51;1821625;78;21203;-55
2023/07/16 11:56:41;;;;;;;5.17;1.55;;;;;;;28.25;43.06;100822.51;1821740;78;21708;-53
2023/07/16 11:59:48;;;;;;;2.67;1.27;;;;;;;28.20;42.97;100825.31;1822848;78;21330;-54
2023/07/16 12:02:55;;;;;;;2.20;1.20;;;;;;;28.13;42.89;100816.29;1822830;77;21379;-54
2023/07/16 12:06:02;;;;;;;3.12;0.93;;;;;;;28.09;42.75;100814.32;1808749;78;21322;-53
2023/07/16 12:09:09;;;;;;;1.40;1.12;;;;;;;28.11;42.57;100812.08;1822777;77;21755;-55
2023/07/16 12:12:16;;;;;;;3.20;1.20;;;;;;;28.13;42.50;100810.66;1821850;78;21168;-54
2023/07/16 12:15:21;;;;;;;1.90;1.30;;;;;;;28.22;42.35;100812.36;1821970;78;21841;-55
2023/07/16 12:18:26;;;;;;;2.00;1.10;;;;;;;28.33;42.22;100807.02;1822716;78;21359;-55
2023/07/16 12:21:32;;;;;;;4.12;1.12;;;;;;;28.42;42.03;100806.16;1805571;79;21342;-55
2023/07/16 12:24:40;;;;;;;3.25;1.32;;;;;;;28.38;41.78;100817.73;1804857;79;21338;-54
2023/07/16 12:27:47;;;;;;;3.00;1.17;;;;;;;28.23;41.45;100809.27;1805647;79;21832;-55
2023/07/16 12:30:53;;;;;;;2.92;1.20;;;;;;;28.11;41.35;100813.48;1804981;79;21373;-56
2023/07/16 12:34:05;;;;;;;2.72;1.12;;;;;;;27.98;41.23;100814.88;1809428;78;21288;-54
2023/07/16 12:37:10;;;;;;;3.17;1.10;;;;;;;27.94;41.15;100807.28;1830219;78;21204;-56
2023/07/16 12:40:17;;;;;;;2.50;1.20;;;;;;;27.89;41.13;100808.67;1837587;78;21362;-55
2023/07/16 12:43:23;;;;;;;7.55;1.40;;;;;;;27.83;41.00;100812.00;1821041;78;21903;-54
2023/07/16 12:46:31;;;;;;;2.45;1.27;;;;;;;27.77;40.84;100801.86;1838153;78;21338;-54
2023/07/16 12:49:37;;;;;;;1.67;1.00;;;;;;;27.83;40.89;100808.63;1838316;78;21707;-56
2023/07/16 12:52:43;;;;;;;2.02;1.10;;;;;;;27.97;40.76;100808.12;1838592;77;21346;-55
2023/07/16 12:55:51;;;;;;;1.80;1.25;;;;;;;28.05;40.68;100800.53;1838765;78;21708;-55
2023/07/16 12:58:58;;;;;;;1.60;1.00;;;;;;;28.16;40.59;100809.27;1838741;78;21835;-55
2023/07/16 13:02:03;;;;;;;1.77;1.10;;;;;;;28.26;40.50;100798.02;1839202;78;21350;-56
2023/07/16 13:05:12;;;;;;;3.80;1.40;;;;;;;28.42;40.47;100796.30;1839138;78;21339;-55
2023/07/16 13:08:18;;;;;;;3.27;1.40;;;;;;;28.55;40.35;100801.95;1822621;77;21338;-56
2023/07/16 13:11:25;;;;;;;3.22;1.47;;;;;;;28.61;40.29;100804.48;1838287;78;21915;-56
2023/07/16 13:14:32;;;;;;;4.67;1.25;;;;;;;28.67;40.18;100796.87;1838236;78;21638;-54
2023/07/16 13:17:38;;;;;;;4.08;1.70;;;;;;;28.64;39.95;100792.63;1837675;78;21334;-56
2023/07/16 13:20:44;;;;;;;1.70;1.10;;;;;;;28.58;39.84;100799.41;1838242;77;21350;-54
2023/07/16 13:23:52;;;;;;;3.30;1.47;;;;;;;28.48;39.67;100801.41;1838497;78;21177;-53
2023/07/16 13:26:59;;;;;;;2.72;1.30;;;;;;;28.41;39.80;100800.26;1838517;78;21369;-55
2023/07/16 13:30:06;;;;;;;2.83;1.42;;;;;;;28.41;39.89;100800.26;1838829;77;21920;-54
2023/07/16 13:33:12;;;;;;;1.60;1.30;;;;;;;28.45;39.88;100797.69;1838769;78;21334;-55
2023/07/16 13:36:19;;;;;;;2.60;1.25;;;;;;;28.43;39.81;100791.52;1833500;75;21430;-54
2023/07/16 13:39:27;;;;;;;1.67;1.05;;;;;;;28.47;39.85;100788.41;1833453;78;21405;-54
2023/07/16 13:42:35;;;;;;;7.97;2.00;;;;;;;28.61;39.95;100792.35;1833541;78;21434;-55
2023/07/16 13:45:42;;;;;;;2.95;1.30;;;;;;;28.70;39.90;100798.53;1833582;78;21830;-55
2023/07/16 13:48:49;;;;;;;1.90;0.98;;;;;;;28.73;39.76;100790.09;1784349;79;21393;-55
2023/07/16 13:51:57;;;;;;;2.58;1.17;;;;;;;28.83;39.76;100782.44;1791634;79;21192;-55
2023/07/16 13:55:05;;;;;;;1.92;1.20;;;;;;;28.92;39.74;100791.17;1791323;79;21165;-55
2023/07/16 13:58:12;;;;;;;2.17;1.50;;;;;;;28.81;39.50;100783.88;1769694;79;21203;-56
2023/07/16 14:01:19;;;;;;;2.47;1.42;;;;;;;28.72;39.40;100779.92;1783491;79;22044;-54
2023/07/16 14:04:26;;;;;;;1.90;1.20;;;;;;;28.65;39.43;100777.44;1793702;79;21307;-56
2023/07/16 14:07:33;;;;;;;3.70;1.10;;;;;;;28.69;39.41;100769.23;1762583;81;21382;-55
2023/07/16 14:10:39;;;;;;;1.52;1.10;;;;;;;28.74;39.47;100768.67;1761370;81;21863;-55
2023/07/16 14:13:50;;;;;;;1.57;1.32;;;;;;;28.82;39.40;100774.27;1761649;81;21357;-55
2023/07/16 14:16:56;;;;;;;2.08;1.22;;;;;;;28.83;39.33;100773.98;1772889;79;21529;-55
2023/07/16 14:20:04;;;;;;;2.05;1.25;;;;;;;28.83;39.19;100771.72;1800021;79;21743;-56
2023/07/16 14:23:11;;;;;;;3.33;1.40;;;;;;;28.76;39.09;100778.25;1799864;79;21181;-55
2023/07/16 14:26:17;;;;;;;3.85;1.40;;;;;;;28.68;38.93;100782.50;1791591;79;21354;-56
2023/07/16 14:29:22;;;;;;;2.05;1.10;;;;;;;28.56;38.83;100779.13;1767341;81;21254;-56
2023/07/16 14:32:31;;;;;;;1.72;1.10;;;;;;;28.52;38.76;100775.75;1767458;80;21188;-54